LEBZ/BJZ METAR and TAF weather

Enter ICAO airport designator
Station Type Date Time Source
LEBZ METAR 2019/06/18 05:00 UTC NOAA

LEBZ 180500Z VRB01KT CAVOK 13/08 Q1015


Station Type Date Time Source
LEBZ Decoded METAR 2019/06/18 05:00 UTC NOAA

Badajoz / Talavera La Real, Spain (LEBZ) 38-53N 006-49W 192M
Jun 18, 2019 - 01:00 AM EDT / 2019.06.18 0500 UTC
Wind: Variable at 1 MPH (1 KT):0
Visibility: greater than 7 mile(s):0
Temperature: 55 F (13 C)
Dew Point: 46 F (8 C)
Relative Humidity: 71%
Pressure (altimeter): 29.97 in. Hg (1015 hPa)
ob: LEBZ 180500Z VRB01KT CAVOK 13/08 Q1015
cycle: 5

Station Type Date Time Source
LEBZ TAF 2019/06/18 06:27 UTC NOAA

TAF LEBZ 180500Z 1806/1906 22005KT 9999 SCT035 TX27/1815Z TN13/1806Z PROB30
TEMPO 1806/1808 BKN014
BECMG 1810/1813 24015KT PROB30
TEMPO 1813/1818 24015G25KT
BECMG 1821/1824 26005KT

Example: see airport list